sensor_id;sensor_type;location;lat;lon;timestamp;pressure;altitude;pressure_sealevel;temperature;humidity
12219;BME280;6172;42.646;23.344;2023-05-25T00:02:18;94539.75;;;14.36;100.00
12219;BME280;6172;42.646;23.344;2023-05-25T00:04:48;94546.34;;;14.26;100.00
12219;BME280;6172;42.646;23.344;2023-05-25T00:07:16;94547.47;;;14.03;100.00
12219;BME280;6172;42.646;23.344;2023-05-25T00:09:43;94552.38;;;14.08;100.00
12219;BME280;6172;42.646;23.344;2023-05-25T00:12:13;94554.47;;;14.04;100.00
12219;BME280;6172;42.646;23.344;2023-05-25T00:14:40;94546.03;;;13.99;100.00
12219;BME280;6172;42.646;23.344;2023-05-25T00:17:07;94553.81;;;14.13;100.00
12219;BME280;6172;42.646;23.344;2023-05-25T00:19:35;94550.84;;;13.95;100.00
12219;BME280;6172;42.646;23.344;2023-05-25T00:22:02;94552.81;;;14.07;100.00
12219;BME280;6172;42.646;23.344;2023-05-25T00:24:29;94553.81;;;14.13;100.00
12219;BME280;6172;42.646;23.344;2023-05-25T00:26:56;94556.44;;;14.16;100.00
12219;BME280;6172;42.646;23.344;2023-05-25T00:29:25;94552.16;;;14.03;100.00
12219;BME280;6172;42.646;23.344;2023-05-25T00:31:52;94558.50;;;14.00;100.00
12219;BME280;6172;42.646;23.344;2023-05-25T00:34:18;94558.19;;;14.10;100.00
12219;BME280;6172;42.646;23.344;2023-05-25T00:36:47;94558.97;;;14.11;100.00
12219;BME280;6172;42.646;23.344;2023-05-25T00:39:14;94557.19;;;14.04;100.00
12219;BME280;6172;42.646;23.344;2023-05-25T00:41:43;94565.88;;;13.90;100.00
12219;BME280;6172;42.646;23.344;2023-05-25T00:44:11;94561.38;;;13.96;100.00
12219;BME280;6172;42.646;23.344;2023-05-25T00:46:43;94558.44;;;13.91;100.00
12219;BME280;6172;42.646;23.344;2023-05-25T00:49:12;94572.66;;;13.98;100.00
12219;BME280;6172;42.646;23.344;2023-05-25T00:51:39;94566.06;;;14.08;100.00
12219;BME280;6172;42.646;23.344;2023-05-25T00:54:11;94569.03;;;13.89;100.00
12219;BME280;6172;42.646;23.344;2023-05-25T00:56:39;94573.31;;;13.90;100.00
12219;BME280;6172;42.646;23.344;2023-05-25T00:59:13;94564.44;;;13.98;100.00
12219;BME280;6172;42.646;23.344;2023-05-25T01:01:43;94556.56;;;13.88;100.00
12219;BME280;6172;42.646;23.344;2023-05-25T01:04:12;94568.69;;;13.74;100.00
12219;BME280;6172;42.646;23.344;2023-05-25T01:06:43;94564.63;;;13.38;100.00
12219;BME280;6172;42.646;23.344;2023-05-25T01:09:15;94579.28;;;13.19;100.00
12219;BME280;6172;42.646;23.344;2023-05-25T01:11:47;94584.19;;;13.24;100.00
12219;BME280;6172;42.646;23.344;2023-05-25T01:14:17;94586.06;;;13.27;100.00
12219;BME280;6172;42.646;23.344;2023-05-25T01:16:46;94588.66;;;13.18;100.00
12219;BME280;6172;42.646;23.344;2023-05-25T01:19:13;94590.06;;;13.10;100.00
12219;BME280;6172;42.646;23.344;2023-05-25T01:21:46;94584.25;;;13.08;100.00
12219;BME280;6172;42.646;23.344;2023-05-25T01:24:21;94586.66;;;13.06;100.00
12219;BME280;6172;42.646;23.344;2023-05-25T01:26:54;94580.00;;;12.91;100.00
12219;BME280;6172;42.646;23.344;2023-05-25T01:29:25;94579.97;;;13.07;100.00
12219;BME280;6172;42.646;23.344;2023-05-25T01:31:54;94584.25;;;13.08;100.00
12219;BME280;6172;42.646;23.344;2023-05-25T01:34:23;94579.53;;;13.08;100.00
12219;BME280;6172;42.646;23.344;2023-05-25T01:36:52;94577.72;;;13.18;100.00
12219;BME280;6172;42.646;23.344;2023-05-25T01:39:20;94567.78;;;13.24;100.00
12219;BME280;6172;42.646;23.344;2023-05-25T01:41:47;94564.28;;;13.23;100.00
12219;BME280;6172;42.646;23.344;2023-05-25T01:44:14;94559.91;;;13.26;100.00
12219;BME280;6172;42.646;23.344;2023-05-25T01:46:41;94553.03;;;13.34;100.00
12219;BME280;6172;42.646;23.344;2023-05-25T01:49:14;94554.16;;;13.36;100.00
12219;BME280;6172;42.646;23.344;2023-05-25T01:51:52;94547.13;;;13.35;100.00
12219;BME280;6172;42.646;23.344;2023-05-25T01:54:27;94546.44;;;13.31;100.00
12219;BME280;6172;42.646;23.344;2023-05-25T01:56:57;94549.66;;;13.42;100.00
12219;BME280;6172;42.646;23.344;2023-05-25T01:59:27;94549.56;;;13.46;100.00
12219;BME280;6172;42.646;23.344;2023-05-25T02:01:55;94547.97;;;13.32;100.00
12219;BME280;6172;42.646;23.344;2023-05-25T02:04:24;94555.59;;;12.84;100.00
12219;BME280;6172;42.646;23.344;2023-05-25T02:06:53;94560.56;;;12.40;100.00
12219;BME280;6172;42.646;23.344;2023-05-25T02:09:20;94567.00;;;12.34;100.00
12219;BME280;6172;42.646;23.344;2023-05-25T02:11:47;94577.56;;;12.32;100.00
12219;BME280;6172;42.646;23.344;2023-05-25T02:14:14;94560.91;;;12.26;100.00
12219;BME280;6172;42.646;23.344;2023-05-25T02:16:42;94574.06;;;12.31;100.00
12219;BME280;6172;42.646;23.344;2023-05-25T02:19:11;94574.84;;;12.32;100.00
12219;BME280;6172;42.646;23.344;2023-05-25T02:21:39;94574.91;;;12.28;100.00
12219;BME280;6172;42.646;23.344;2023-05-25T02:24:08;94581.59;;;12.43;100.00
12219;BME280;6172;42.646;23.344;2023-05-25T02:26:35;94581.41;;;12.50;100.00
12219;BME280;6172;42.646;23.344;2023-05-25T02:29:02;94587.47;;;12.42;100.00
12219;BME280;6172;42.646;23.344;2023-05-25T02:31:29;94596.19;;;12.53;100.00
12219;BME280;6172;42.646;23.344;2023-05-25T02:33:56;94586.63;;;12.29;100.00
12219;BME280;6172;42.646;23.344;2023-05-25T02:36:23;94592.00;;;12.32;100.00
12219;BME280;6172;42.646;23.344;2023-05-25T02:38:50;94596.69;;;12.48;100.00
12219;BME280;6172;42.646;23.344;2023-05-25T02:41:19;94604.41;;;12.53;100.00
12219;BME280;6172;42.646;23.344;2023-05-25T02:43:46;94606.09;;;12.47;100.00
12219;BME280;6172;42.646;23.344;2023-05-25T02:46:13;94615.16;;;12.44;100.00
12219;BME280;6172;42.646;23.344;2023-05-25T02:48:40;94601.06;;;12.45;100.00
12219;BME280;6172;42.646;23.344;2023-05-25T02:51:08;94614.31;;;12.47;100.00
12219;BME280;6172;42.646;23.344;2023-05-25T02:53:35;94626.34;;;12.49;100.00
12219;BME280;6172;42.646;23.344;2023-05-25T02:56:02;94614.88;;;12.38;100.00
12219;BME280;6172;42.646;23.344;2023-05-25T02:58:31;94615.47;;;12.30;100.00
12219;BME280;6172;42.646;23.344;2023-05-25T03:00:57;94623.25;;;12.31;100.00
12219;BME280;6172;42.646;23.344;2023-05-25T03:03:25;94621.13;;;12.39;100.00
12219;BME280;6172;42.646;23.344;2023-05-25T03:05:52;94622.81;;;12.33;100.00
12219;BME280;6172;42.646;23.344;2023-05-25T03:08:18;94624.38;;;12.34;100.00
12219;BME280;6172;42.646;23.344;2023-05-25T03:10:46;94626.78;;;12.48;100.00
12219;BME280;6172;42.646;23.344;2023-05-25T03:13:14;94632.09;;;12.55;100.00
12219;BME280;6172;42.646;23.344;2023-05-25T03:15:42;94630.09;;;12.39;100.00
12219;BME280;6172;42.646;23.344;2023-05-25T03:18:09;94630.09;;;12.39;100.00
12219;BME280;6172;42.646;23.344;2023-05-25T03:20:36;94631.88;;;12.30;100.00
12219;BME280;6172;42.646;23.344;2023-05-25T03:23:03;94639.13;;;12.20;100.00
12219;BME280;6172;42.646;23.344;2023-05-25T03:25:29;94635.34;;;12.14;100.00
12219;BME280;6172;42.646;23.344;2023-05-25T03:27:56;94630.56;;;12.18;100.00
12219;BME280;6172;42.646;23.344;2023-05-25T03:30:23;94634.88;;;12.19;100.00
12219;BME280;6172;42.646;23.344;2023-05-25T03:32:52;94642.22;;;12.22;100.00
12219;BME280;6172;42.646;23.344;2023-05-25T03:35:18;94645.59;;;12.10;100.00
12219;BME280;6172;42.646;23.344;2023-05-25T03:37:45;94654.84;;;11.61;100.00
12219;BME280;6172;42.646;23.344;2023-05-25T03:40:12;94650.28;;;11.94;100.00
12219;BME280;6172;42.646;23.344;2023-05-25T03:42:39;94641.19;;;11.97;100.00
12219;BME280;6172;42.646;23.344;2023-05-25T03:45:07;94641.06;;;12.04;100.00
12219;BME280;6172;42.646;23.344;2023-05-25T03:47:34;94639.78;;;12.08;100.00
12219;BME280;6172;42.646;23.344;2023-05-25T03:50:03;94641.59;;;12.15;100.00
12219;BME280;6172;42.646;23.344;2023-05-25T03:52:31;94639.47;;;12.22;100.00
12219;BME280;6172;42.646;23.344;2023-05-25T03:54:58;94640.94;;;12.27;100.00
12219;BME280;6172;42.646;23.344;2023-05-25T03:57:28;94640.34;;;12.35;100.00
12219;BME280;6172;42.646;23.344;2023-05-25T03:59:55;94642.56;;;12.40;100.00
12219;BME280;6172;42.646;23.344;2023-05-25T04:02:22;94640.56;;;12.60;100.00
12219;BME280;6172;42.646;23.344;2023-05-25T04:04:49;94641.81;;;12.72;100.00
12219;BME280;6172;42.646;23.344;2023-05-25T04:07:19;94640.66;;;12.57;100.00
12219;BME280;6172;42.646;23.344;2023-05-25T04:09:46;94641.81;;;12.56;100.00
12219;BME280;6172;42.646;23.344;2023-05-25T04:12:13;94641.53;;;12.50;100.00
12219;BME280;6172;42.646;23.344;2023-05-25T04:14:39;94654.53;;;12.95;100.00
12219;BME280;6172;42.646;23.344;2023-05-25T04:17:06;94662.59;;;12.86;100.00
12219;BME280;6172;42.646;23.344;2023-05-25T04:19:33;94662.81;;;13.23;100.00
12219;BME280;6172;42.646;23.344;2023-05-25T04:22:00;94652.50;;;13.43;100.00
12219;BME280;6172;42.646;23.344;2023-05-25T04:24:29;94653.25;;;13.44;100.00
12219;BME280;6172;42.646;23.344;2023-05-25T04:26:57;94646.16;;;13.46;100.00
12219;BME280;6172;42.646;23.344;2023-05-25T04:29:24;94652.38;;;13.47;100.00
12219;BME280;6172;42.646;23.344;2023-05-25T04:31:51;94667.44;;;13.83;100.00
12219;BME280;6172;42.646;23.344;2023-05-25T04:34:19;94664.06;;;13.92;100.00
12219;BME280;6172;42.646;23.344;2023-05-25T04:36:46;94661.25;;;14.08;100.00
12219;BME280;6172;42.646;23.344;2023-05-25T04:39:13;94669.47;;;14.20;100.00
12219;BME280;6172;42.646;23.344;2023-05-25T04:41:41;94670.03;;;14.28;100.00
12219;BME280;6172;42.646;23.344;2023-05-25T04:44:08;94672.00;;;14.40;100.00
12219;BME280;6172;42.646;23.344;2023-05-25T04:46:35;94667.94;;;14.57;100.00
12219;BME280;6172;42.646;23.344;2023-05-25T04:49:03;94664.00;;;14.83;100.00
12219;BME280;6172;42.646;23.344;2023-05-25T04:51:30;94669.16;;;14.93;100.00
12219;BME280;6172;42.646;23.344;2023-05-25T04:53:57;94661.19;;;15.21;100.00
12219;BME280;6172;42.646;23.344;2023-05-25T04:56:24;94658.56;;;15.17;100.00
12219;BME280;6172;42.646;23.344;2023-05-25T04:58:53;94651.41;;;15.20;100.00
12219;BME280;6172;42.646;23.344;2023-05-25T05:01:19;94643.97;;;15.20;100.00
12219;BME280;6172;42.646;23.344;2023-05-25T05:03:46;94640.94;;;15.61;100.00
12219;BME280;6172;42.646;23.344;2023-05-25T05:06:13;94637.84;;;15.59;100.00
12219;BME280;6172;42.646;23.344;2023-05-25T05:08:40;94644.25;;;15.56;100.00
12219;BME280;6172;42.646;23.344;2023-05-25T05:11:07;94636.06;;;15.65;100.00
12219;BME280;6172;42.646;23.344;2023-05-25T05:13:34;94633.50;;;15.83;100.00
12219;BME280;6172;42.646;23.344;2023-05-25T05:16:03;94638.72;;;15.69;100.00
12219;BME280;6172;42.646;23.344;2023-05-25T05:18:30;94643.63;;;15.95;100.00
12219;BME280;6172;42.646;23.344;2023-05-25T05:20:57;94638.88;;;16.17;100.00
12219;BME280;6172;42.646;23.344;2023-05-25T05:23:24;94635.50;;;16.13;100.00
12219;BME280;6172;42.646;23.344;2023-05-25T05:25:51;94638.09;;;16.47;100.00
12219;BME280;6172;42.646;23.344;2023-05-25T05:28:18;94642.09;;;16.55;100.00
12219;BME280;6172;42.646;23.344;2023-05-25T05:30:45;94640.06;;;16.47;100.00
12219;BME280;6172;42.646;23.344;2023-05-25T05:33:14;94642.88;;;16.95;100.00
12219;BME280;6172;42.646;23.344;2023-05-25T05:35:41;94648.66;;;16.88;100.00
12219;BME280;6172;42.646;23.344;2023-05-25T05:38:07;94653.59;;;16.63;100.00
12219;BME280;6172;42.646;23.344;2023-05-25T05:40:35;94644.09;;;16.94;100.00
12219;BME280;6172;42.646;23.344;2023-05-25T05:43:02;94651.63;;;17.12;100.00
12219;BME280;6172;42.646;23.344;2023-05-25T05:45:29;94651.03;;;17.26;100.00
12219;BME280;6172;42.646;23.344;2023-05-25T05:47:55;94658.59;;;17.80;100.00
12219;BME280;6172;42.646;23.344;2023-05-25T05:50:24;94654.56;;;18.67;100.00
12219;BME280;6172;42.646;23.344;2023-05-25T05:52:51;94659.84;;;20.36;100.00
12219;BME280;6172;42.646;23.344;2023-05-25T05:55:18;94642.34;;;22.03;93.63
12219;BME280;6172;42.646;23.344;2023-05-25T05:57:45;94642.34;;;22.03;82.67
12219;BME280;6172;42.646;23.344;2023-05-25T06:00:13;94659.00;;;22.03;79.90
12219;BME280;6172;42.646;23.344;2023-05-25T06:02:40;94649.00;;;22.93;74.49
12219;BME280;6172;42.646;23.344;2023-05-25T06:05:08;94651.81;;;23.35;70.63
12219;BME280;6172;42.646;23.344;2023-05-25T06:07:36;94651.19;;;24.26;65.02
12219;BME280;6172;42.646;23.344;2023-05-25T06:10:04;94649.53;;;25.00;58.61
12219;BME280;6172;42.646;23.344;2023-05-25T06:12:31;94647.88;;;25.76;54.98
12219;BME280;6172;42.646;23.344;2023-05-25T06:14:58;94644.91;;;26.15;53.74
12219;BME280;6172;42.646;23.344;2023-05-25T06:17:26;94645.06;;;26.69;50.56
12219;BME280;6172;42.646;23.344;2023-05-25T06:19:53;94648.59;;;25.77;50.32
12219;BME280;6172;42.646;23.344;2023-05-25T06:22:20;94644.28;;;25.81;50.50
12219;BME280;6172;42.646;23.344;2023-05-25T06:24:50;94645.91;;;25.55;53.05
12219;BME280;6172;42.646;23.344;2023-05-25T06:27:17;94653.31;;;25.14;55.27
12219;BME280;6172;42.646;23.344;2023-05-25T06:29:44;94639.41;;;26.45;50.52
12219;BME280;6172;42.646;23.344;2023-05-25T06:32:10;94642.56;;;28.58;44.74
12219;BME280;6172;42.646;23.344;2023-05-25T06:34:37;94638.47;;;27.31;46.19
12219;BME280;6172;42.646;23.344;2023-05-25T06:37:04;94645.53;;;26.78;47.44
12219;BME280;6172;42.646;23.344;2023-05-25T06:39:34;94641.34;;;28.16;45.34
12219;BME280;6172;42.646;23.344;2023-05-25T06:42:10;94651.44;;;27.82;45.21
12219;BME280;6172;42.646;23.344;2023-05-25T06:44:37;94650.38;;;27.61;44.48
12219;BME280;6172;42.646;23.344;2023-05-25T06:47:04;94645.78;;;26.40;47.90
12219;BME280;6172;42.646;23.344;2023-05-25T06:49:32;94643.13;;;27.71;45.27
12219;BME280;6172;42.646;23.344;2023-05-25T06:51:59;94636.00;;;27.51;45.18
12219;BME280;6172;42.646;23.344;2023-05-25T06:54:26;94643.53;;;27.62;44.45
12219;BME280;6172;42.646;23.344;2023-05-25T06:56:52;94647.38;;;28.94;42.48
12219;BME280;6172;42.646;23.344;2023-05-25T06:59:21;94652.38;;;27.42;44.96
12219;BME280;6172;42.646;23.344;2023-05-25T07:01:48;94644.50;;;28.81;41.55
12219;BME280;6172;42.646;23.344;2023-05-25T07:04:15;94650.81;;;28.13;42.94
12219;BME280;6172;42.646;23.344;2023-05-25T07:06:42;94649.22;;;28.36;42.81
12219;BME280;6172;42.646;23.344;2023-05-25T07:09:09;94645.22;;;28.50;42.93
12219;BME280;6172;42.646;23.344;2023-05-25T07:11:36;94633.28;;;28.50;43.33
12219;BME280;6172;42.646;23.344;2023-05-25T07:14:02;94640.09;;;27.21;46.29
12219;BME280;6172;42.646;23.344;2023-05-25T07:16:31;94626.41;;;28.45;43.16
12219;BME280;6172;42.646;23.344;2023-05-25T07:18:58;94627.19;;;28.27;43.93
12219;BME280;6172;42.646;23.344;2023-05-25T07:21:25;94637.81;;;27.49;44.95
12219;BME280;6172;42.646;23.344;2023-05-25T07:23:52;94630.56;;;27.59;45.45
12219;BME280;6172;42.646;23.344;2023-05-25T07:26:18;94633.97;;;27.52;46.25
12219;BME280;6172;42.646;23.344;2023-05-25T07:28:47;94640.16;;;27.45;46.90
12219;BME280;6172;42.646;23.344;2023-05-25T07:31:14;94636.22;;;26.65;49.21
12219;BME280;6172;42.646;23.344;2023-05-25T07:33:45;94635.66;;;26.72;49.08
12219;BME280;6172;42.646;23.344;2023-05-25T07:36:12;94640.91;;;28.12;45.99
12219;BME280;6172;42.646;23.344;2023-05-25T07:38:39;94645.28;;;28.45;44.98
12219;BME280;6172;42.646;23.344;2023-05-25T07:41:06;94642.84;;;28.36;45.14
12219;BME280;6172;42.646;23.344;2023-05-25T07:43:33;94645.44;;;26.89;48.01
12219;BME280;6172;42.646;23.344;2023-05-25T07:46:00;94655.84;;;24.79;55.11
12219;BME280;6172;42.646;23.344;2023-05-25T07:48:27;94644.53;;;24.07;59.41
12219;BME280;6172;42.646;23.344;2023-05-25T07:50:56;94647.94;;;23.63;66.07
12219;BME280;6172;42.646;23.344;2023-05-25T07:53:22;94650.44;;;22.83;71.83
12219;BME280;6172;42.646;23.344;2023-05-25T07:55:49;94661.44;;;22.21;80.62
12219;BME280;6172;42.646;23.344;2023-05-25T07:58:16;94661.34;;;21.64;89.15
12219;BME280;6172;42.646;23.344;2023-05-25T08:00:43;94673.69;;;21.48;93.59
12219;BME280;6172;42.646;23.344;2023-05-25T08:03:10;94665.94;;;20.98;97.43
12219;BME280;6172;42.646;23.344;2023-05-25T08:05:37;94681.88;;;20.59;100.00
12219;BME280;6172;42.646;23.344;2023-05-25T08:08:06;94684.78;;;20.36;100.00
12219;BME280;6172;42.646;23.344;2023-05-25T08:10:34;94691.31;;;20.09;100.00
12219;BME280;6172;42.646;23.344;2023-05-25T08:13:01;94689.19;;;19.10;100.00
12219;BME280;6172;42.646;23.344;2023-05-25T08:15:28;94696.88;;;18.82;100.00
12219;BME280;6172;42.646;23.344;2023-05-25T08:17:55;94711.09;;;18.30;100.00
12219;BME280;6172;42.646;23.344;2023-05-25T08:20:21;94717.25;;;18.16;100.00
12219;BME280;6172;42.646;23.344;2023-05-25T08:22:50;94729.81;;;18.17;100.00
12219;BME280;6172;42.646;23.344;2023-05-25T08:25:20;94734.69;;;17.68;100.00
12219;BME280;6172;42.646;23.344;2023-05-25T08:27:47;94735.44;;;17.60;100.00
12219;BME280;6172;42.646;23.344;2023-05-25T08:30:13;94741.97;;;17.53;100.00
12219;BME280;6172;42.646;23.344;2023-05-25T08:32:41;94748.56;;;17.47;100.00
12219;BME280;6172;42.646;23.344;2023-05-25T08:35:08;94755.00;;;17.44;100.00
12219;BME280;6172;42.646;23.344;2023-05-25T08:37:35;94752.50;;;17.27;100.00
12219;BME280;6172;42.646;23.344;2023-05-25T08:40:02;94761.63;;;17.06;100.00
12219;BME280;6172;42.646;23.344;2023-05-25T08:42:33;94764.72;;;16.87;100.00
12219;BME280;6172;42.646;23.344;2023-05-25T08:45:00;94766.97;;;17.10;100.00
12219;BME280;6172;42.646;23.344;2023-05-25T08:47:30;94775.78;;;16.96;100.00
12219;BME280;6172;42.646;23.344;2023-05-25T08:49:59;94775.16;;;16.92;100.00
12219;BME280;6172;42.646;23.344;2023-05-25T08:52:28;94776.38;;;16.91;100.00
12219;BME280;6172;42.646;23.344;2023-05-25T08:55:03;94777.13;;;16.91;100.00
12219;BME280;6172;42.646;23.344;2023-05-25T08:57:36;94776.06;;;16.89;100.00
12219;BME280;6172;42.646;23.344;2023-05-25T09:00:07;94780.03;;;16.88;100.00
12219;BME280;6172;42.646;23.344;2023-05-25T09:02:38;94780.78;;;16.58;100.00
12219;BME280;6172;42.646;23.344;2023-05-25T09:05:08;94795.03;;;16.44;100.00
12219;BME280;6172;42.646;23.344;2023-05-25T09:07:35;94790.19;;;16.48;100.00
12219;BME280;6172;42.646;23.344;2023-05-25T09:10:02;94791.47;;;16.34;100.00
12219;BME280;6172;42.646;23.344;2023-05-25T09:12:30;94790.56;;;16.37;100.00
12219;BME280;6172;42.646;23.344;2023-05-25T09:14:58;94782.94;;;15.98;100.00
12219;BME280;6172;42.646;23.344;2023-05-25T09:17:26;94803.94;;;15.92;100.00
12219;BME280;6172;42.646;23.344;2023-05-25T09:19:53;94798.53;;;16.01;100.00
12219;BME280;6172;42.646;23.344;2023-05-25T09:22:22;94802.50;;;16.00;100.00
12219;BME280;6172;42.646;23.344;2023-05-25T09:24:49;94798.53;;;16.01;100.00
12219;BME280;6172;42.646;23.344;2023-05-25T09:27:17;94802.13;;;15.77;100.00
12219;BME280;6172;42.646;23.344;2023-05-25T09:29:46;94798.38;;;15.83;100.00
12219;BME280;6172;42.646;23.344;2023-05-25T09:32:15;94798.59;;;15.89;100.00
12219;BME280;6172;42.646;23.344;2023-05-25T09:34:42;94798.00;;;15.94;100.00
12219;BME280;6172;42.646;23.344;2023-05-25T09:37:15;94802.81;;;16.02;100.00
12219;BME280;6172;42.646;23.344;2023-05-25T09:39:43;94793.88;;;16.11;100.00
12219;BME280;6172;42.646;23.344;2023-05-25T09:42:10;94790.38;;;16.32;100.00
12219;BME280;6172;42.646;23.344;2023-05-25T09:44:38;94779.31;;;16.23;100.00
12219;BME280;6172;42.646;23.344;2023-05-25T09:47:06;94772.91;;;16.26;100.00
12219;BME280;6172;42.646;23.344;2023-05-25T09:49:36;94779.03;;;16.30;100.00
12219;BME280;6172;42.646;23.344;2023-05-25T09:52:03;94776.22;;;16.42;100.00
12219;BME280;6172;42.646;23.344;2023-05-25T09:54:30;94771.09;;;16.53;100.00
12219;BME280;6172;42.646;23.344;2023-05-25T09:56:58;94764.97;;;16.71;100.00
12219;BME280;6172;42.646;23.344;2023-05-25T09:59:26;94753.72;;;16.65;100.00
12219;BME280;6172;42.646;23.344;2023-05-25T10:01:53;94750.34;;;16.83;100.00
12219;BME280;6172;42.646;23.344;2023-05-25T10:04:20;94760.91;;;16.84;100.00
12219;BME280;6172;42.646;23.344;2023-05-25T10:06:48;94753.81;;;17.05;100.00
12219;BME280;6172;42.646;23.344;2023-05-25T10:09:17;94753.69;;;17.17;100.00
12219;BME280;6172;42.646;23.344;2023-05-25T10:11:44;94750.09;;;17.39;100.00
12219;BME280;6172;42.646;23.344;2023-05-25T10:14:14;94745.06;;;17.55;100.00
12219;BME280;6172;42.646;23.344;2023-05-25T10:16:45;94739.47;;;17.86;100.00
12219;BME280;6172;42.646;23.344;2023-05-25T10:19:18;94732.13;;;17.92;100.00
12219;BME280;6172;42.646;23.344;2023-05-25T10:21:57;94721.84;;;18.01;100.00
12219;BME280;6172;42.646;23.344;2023-05-25T10:24:33;94723.50;;;18.35;100.00
12219;BME280;6172;42.646;23.344;2023-05-25T10:27:02;94720.53;;;18.65;100.00
12219;BME280;6172;42.646;23.344;2023-05-25T10:29:30;94707.09;;;19.32;100.00
12219;BME280;6172;42.646;23.344;2023-05-25T10:32:00;94704.84;;;19.45;100.00
12219;BME280;6172;42.646;23.344;2023-05-25T10:34:27;94697.72;;;19.77;100.00
12219;BME280;6172;42.646;23.344;2023-05-25T10:36:56;94698.50;;;20.16;100.00
12219;BME280;6172;42.646;23.344;2023-05-25T10:39:24;94685.66;;;20.56;100.00
12219;BME280;6172;42.646;23.344;2023-05-25T10:41:52;94674.84;;;20.44;100.00
12219;BME280;6172;42.646;23.344;2023-05-25T10:44:19;94679.44;;;19.94;100.00
12219;BME280;6172;42.646;23.344;2023-05-25T10:46:47;94665.75;;;19.76;100.00
12219;BME280;6172;42.646;23.344;2023-05-25T10:49:24;94672.53;;;19.75;100.00
12219;BME280;6172;42.646;23.344;2023-05-25T10:51:58;94670.53;;;19.28;100.00
12219;BME280;6172;42.646;23.344;2023-05-25T10:54:29;94661.22;;;19.17;100.00
12219;BME280;6172;42.646;23.344;2023-05-25T10:57:10;94663.34;;;19.31;100.00
12219;BME280;6172;42.646;23.344;2023-05-25T10:59:41;94660.06;;;19.09;100.00
12219;BME280;6172;42.646;23.344;2023-05-25T11:02:10;94657.66;;;19.49;100.00
12219;BME280;6172;42.646;23.344;2023-05-25T11:04:36;94646.78;;;19.22;100.00
12219;BME280;6172;42.646;23.344;2023-05-25T11:07:06;94649.88;;;19.24;100.00
12219;BME280;6172;42.646;23.344;2023-05-25T11:09:40;94646.28;;;19.32;100.00
12219;BME280;6172;42.646;23.344;2023-05-25T11:12:18;94655.19;;;19.04;100.00
12219;BME280;6172;42.646;23.344;2023-05-25T11:15:07;94647.28;;;18.88;100.00
12219;BME280;6172;42.646;23.344;2023-05-25T11:17:43;94655.47;;;19.06;100.00
12219;BME280;6172;42.646;23.344;2023-05-25T11:20:20;94660.28;;;19.20;100.00
12219;BME280;6172;42.646;23.344;2023-05-25T11:22:50;94658.19;;;19.15;100.00
12219;BME280;6172;42.646;23.344;2023-05-25T11:25:36;94656.34;;;19.12;100.00
12219;BME280;6172;42.646;23.344;2023-05-25T11:28:05;94655.53;;;19.20;100.00
12219;BME280;6172;42.646;23.344;2023-05-25T11:30:33;94653.63;;;19.03;100.00
12219;BME280;6172;42.646;23.344;2023-05-25T11:33:01;94656.66;;;19.14;100.00
12219;BME280;6172;42.646;23.344;2023-05-25T11:35:30;94663.28;;;18.75;100.00
12219;BME280;6172;42.646;23.344;2023-05-25T11:38:03;94660.19;;;18.82;100.00
12219;BME280;6172;42.646;23.344;2023-05-25T11:40:31;94654.16;;;18.92;100.00
12219;BME280;6172;42.646;23.344;2023-05-25T11:42:58;94661.56;;;19.42;100.00
12219;BME280;6172;42.646;23.344;2023-05-25T11:45:27;94654.94;;;19.25;100.00
12219;BME280;6172;42.646;23.344;2023-05-25T11:47:54;94657.94;;;18.71;100.00
12219;BME280;6172;42.646;23.344;2023-05-25T11:50:22;94657.94;;;18.71;100.00
12219;BME280;6172;42.646;23.344;2023-05-25T11:52:49;94650.06;;;18.79;100.00
12219;BME280;6172;42.646;23.344;2023-05-25T11:55:17;94655.25;;;18.86;100.00
12219;BME280;6172;42.646;23.344;2023-05-25T11:57:45;94654.22;;;18.83;100.00
12219;BME280;6172;42.646;23.344;2023-05-25T12:00:23;94649.97;;;18.97;100.00
12219;BME280;6172;42.646;23.344;2023-05-25T12:02:50;94642.56;;;18.79;100.00
12219;BME280;6172;42.646;23.344;2023-05-25T12:05:17;94647.00;;;19.09;100.00
12219;BME280;6172;42.646;23.344;2023-05-25T12:07:44;94643.69;;;19.29;100.00
12219;BME280;6172;42.646;23.344;2023-05-25T12:10:12;94653.84;;;19.46;100.00
12219;BME280;6172;42.646;23.344;2023-05-25T12:12:42;94645.78;;;19.57;100.00
12219;BME280;6172;42.646;23.344;2023-05-25T12:15:11;94648.03;;;19.83;100.00
12219;BME280;6172;42.646;23.344;2023-05-25T12:17:43;94633.63;;;19.93;100.00
12219;BME280;6172;42.646;23.344;2023-05-25T12:20:11;94639.03;;;20.11;100.00
12219;BME280;6172;42.646;23.344;2023-05-25T12:22:40;94627.59;;;20.33;100.00
12219;BME280;6172;42.646;23.344;2023-05-25T12:25:08;94629.09;;;20.63;100.00
12219;BME280;6172;42.646;23.344;2023-05-25T12:27:35;94624.13;;;20.67;100.00
12219;BME280;6172;42.646;23.344;2023-05-25T12:30:05;94612.53;;;20.97;100.00
12219;BME280;6172;42.646;23.344;2023-05-25T12:32:33;94602.34;;;20.74;94.09
12219;BME280;6172;42.646;23.344;2023-05-25T12:35:02;94613.53;;;20.80;97.47
12219;BME280;6172;42.646;23.344;2023-05-25T12:37:29;94602.66;;;21.11;91.83
12219;BME280;6172;42.646;23.344;2023-05-25T12:39:56;94595.91;;;21.37;89.08
12219;BME280;6172;42.646;23.344;2023-05-25T12:42:23;94592.19;;;21.40;83.36
12219;BME280;6172;42.646;23.344;2023-05-25T12:44:53;94584.00;;;21.31;78.03
12219;BME280;6172;42.646;23.344;2023-05-25T12:47:24;94575.53;;;21.40;81.05
12219;BME280;6172;42.646;23.344;2023-05-25T12:49:53;94576.63;;;21.68;79.64
12219;BME280;6172;42.646;23.344;2023-05-25T12:52:36;94571.22;;;21.80;78.78
12219;BME280;6172;42.646;23.344;2023-05-25T12:55:23;94572.25;;;22.08;74.12
12219;BME280;6172;42.646;23.344;2023-05-25T12:57:51;94565.94;;;21.82;73.62
12219;BME280;6172;42.646;23.344;2023-05-25T13:00:20;94567.47;;;21.83;72.16